sensor_id;sensor_type;location;lat;lon;timestamp;P1;durP1;ratioP1;P2;durP2;ratioP2
15712;SDS011;7957;51.608;6.916;2023-05-10T00:02:12;4.67;;;4.30;;
15712;SDS011;7957;51.608;6.916;2023-05-10T00:07:23;5.63;;;5.13;;
15712;SDS011;7957;51.608;6.916;2023-05-10T00:09:56;5.67;;;5.27;;
15712;SDS011;7957;51.608;6.916;2023-05-10T00:12:24;6.10;;;5.70;;
15712;SDS011;7957;51.608;6.916;2023-05-10T00:15:07;5.67;;;5.27;;
15712;SDS011;7957;51.608;6.916;2023-05-10T00:17:54;5.40;;;5.00;;
15712;SDS011;7957;51.608;6.916;2023-05-10T00:20:39;6.50;;;6.00;;
15712;SDS011;7957;51.608;6.916;2023-05-10T00:23:13;6.77;;;6.27;;
15712;SDS011;7957;51.608;6.916;2023-05-10T00:25:43;6.60;;;6.10;;
15712;SDS011;7957;51.608;6.916;2023-05-10T00:28:25;6.80;;;6.30;;
15712;SDS011;7957;51.608;6.916;2023-05-10T00:31:39;7.13;;;6.63;;
15712;SDS011;7957;51.608;6.916;2023-05-10T00:34:11;6.73;;;6.20;;
15712;SDS011;7957;51.608;6.916;2023-05-10T00:36:41;7.00;;;6.40;;
15712;SDS011;7957;51.608;6.916;2023-05-10T00:39:09;6.87;;;6.27;;
15712;SDS011;7957;51.608;6.916;2023-05-10T00:41:41;7.10;;;6.50;;
15712;SDS011;7957;51.608;6.916;2023-05-10T00:44:14;7.23;;;6.53;;
15712;SDS011;7957;51.608;6.916;2023-05-10T00:46:43;6.83;;;6.33;;
15712;SDS011;7957;51.608;6.916;2023-05-10T00:49:16;7.23;;;6.63;;
15712;SDS011;7957;51.608;6.916;2023-05-10T00:51:57;6.80;;;6.30;;
15712;SDS011;7957;51.608;6.916;2023-05-10T00:54:27;6.73;;;6.23;;
15712;SDS011;7957;51.608;6.916;2023-05-10T00:57:00;7.57;;;6.87;;
15712;SDS011;7957;51.608;6.916;2023-05-10T00:59:42;7.23;;;6.73;;
15712;SDS011;7957;51.608;6.916;2023-05-10T01:02:09;7.37;;;6.67;;
15712;SDS011;7957;51.608;6.916;2023-05-10T01:04:37;7.30;;;6.60;;
15712;SDS011;7957;51.608;6.916;2023-05-10T01:07:04;6.93;;;6.43;;
15712;SDS011;7957;51.608;6.916;2023-05-10T01:09:32;7.50;;;6.90;;
15712;SDS011;7957;51.608;6.916;2023-05-10T01:12:00;7.10;;;6.60;;
15712;SDS011;7957;51.608;6.916;2023-05-10T01:14:27;7.53;;;6.93;;
15712;SDS011;7957;51.608;6.916;2023-05-10T01:16:57;6.73;;;6.13;;
15712;SDS011;7957;51.608;6.916;2023-05-10T01:19:26;6.87;;;6.27;;
15712;SDS011;7957;51.608;6.916;2023-05-10T01:21:57;7.23;;;6.63;;
15712;SDS011;7957;51.608;6.916;2023-05-10T01:24:41;7.23;;;6.63;;
15712;SDS011;7957;51.608;6.916;2023-05-10T01:30:50;6.60;;;6.13;;
15712;SDS011;7957;51.608;6.916;2023-05-10T01:33:43;7.10;;;6.50;;
15712;SDS011;7957;51.608;6.916;2023-05-10T01:36:19;6.80;;;6.30;;
15712;SDS011;7957;51.608;6.916;2023-05-10T01:38:56;7.23;;;6.63;;
15712;SDS011;7957;51.608;6.916;2023-05-10T01:41:30;7.60;;;6.80;;
15712;SDS011;7957;51.608;6.916;2023-05-10T01:44:04;7.07;;;6.47;;
15712;SDS011;7957;51.608;6.916;2023-05-10T01:46:41;7.67;;;7.07;;
15712;SDS011;7957;51.608;6.916;2023-05-10T01:49:11;8.00;;;7.40;;
15712;SDS011;7957;51.608;6.916;2023-05-10T01:51:44;7.60;;;7.00;;
15712;SDS011;7957;51.608;6.916;2023-05-10T01:54:19;7.57;;;7.03;;
15712;SDS011;7957;51.608;6.916;2023-05-10T01:56:49;8.33;;;7.70;;
15712;SDS011;7957;51.608;6.916;2023-05-10T01:59:21;8.73;;;7.97;;
15712;SDS011;7957;51.608;6.916;2023-05-10T02:01:52;9.27;;;8.47;;
15712;SDS011;7957;51.608;6.916;2023-05-10T02:04:22;8.03;;;7.43;;
15712;SDS011;7957;51.608;6.916;2023-05-10T02:06:51;8.77;;;8.07;;
15712;SDS011;7957;51.608;6.916;2023-05-10T02:09:20;8.80;;;8.10;;
15712;SDS011;7957;51.608;6.916;2023-05-10T02:11:48;8.67;;;7.97;;
15712;SDS011;7957;51.608;6.916;2023-05-10T02:14:16;9.03;;;8.30;;
15712;SDS011;7957;51.608;6.916;2023-05-10T02:16:44;9.10;;;8.30;;
15712;SDS011;7957;51.608;6.916;2023-05-10T02:19:14;9.57;;;8.77;;
15712;SDS011;7957;51.608;6.916;2023-05-10T02:21:43;9.93;;;9.13;;
15712;SDS011;7957;51.608;6.916;2023-05-10T02:24:12;9.47;;;8.57;;
15712;SDS011;7957;51.608;6.916;2023-05-10T02:26:41;9.40;;;8.60;;
15712;SDS011;7957;51.608;6.916;2023-05-10T02:29:10;9.00;;;8.30;;
15712;SDS011;7957;51.608;6.916;2023-05-10T02:31:39;10.23;;;9.33;;
15712;SDS011;7957;51.608;6.916;2023-05-10T02:34:08;10.47;;;9.63;;
15712;SDS011;7957;51.608;6.916;2023-05-10T02:36:38;10.43;;;9.50;;
15712;SDS011;7957;51.608;6.916;2023-05-10T02:39:07;10.13;;;9.33;;
15712;SDS011;7957;51.608;6.916;2023-05-10T02:41:37;10.53;;;9.73;;
15712;SDS011;7957;51.608;6.916;2023-05-10T02:44:07;10.73;;;9.83;;
15712;SDS011;7957;51.608;6.916;2023-05-10T02:46:35;10.57;;;9.67;;
15712;SDS011;7957;51.608;6.916;2023-05-10T02:49:02;10.90;;;9.90;;
15712;SDS011;7957;51.608;6.916;2023-05-10T02:51:31;10.93;;;9.90;;
15712;SDS011;7957;51.608;6.916;2023-05-10T02:54:01;11.20;;;10.30;;
15712;SDS011;7957;51.608;6.916;2023-05-10T02:56:40;11.80;;;10.80;;
15712;SDS011;7957;51.608;6.916;2023-05-10T02:59:13;11.80;;;10.80;;
15712;SDS011;7957;51.608;6.916;2023-05-10T03:01:40;12.70;;;11.60;;
15712;SDS011;7957;51.608;6.916;2023-05-10T03:04:07;12.60;;;11.50;;
15712;SDS011;7957;51.608;6.916;2023-05-10T03:06:34;12.80;;;11.60;;
15712;SDS011;7957;51.608;6.916;2023-05-10T03:09:01;12.83;;;11.83;;
15712;SDS011;7957;51.608;6.916;2023-05-10T03:11:32;13.30;;;12.07;;
15712;SDS011;7957;51.608;6.916;2023-05-10T03:14:13;14.00;;;12.70;;
15712;SDS011;7957;51.608;6.916;2023-05-10T03:16:51;13.53;;;12.33;;
15712;SDS011;7957;51.608;6.916;2023-05-10T03:19:26;13.80;;;12.60;;
15712;SDS011;7957;51.608;6.916;2023-05-10T03:21:59;14.20;;;12.90;;
15712;SDS011;7957;51.608;6.916;2023-05-10T03:24:30;14.10;;;12.90;;
15712;SDS011;7957;51.608;6.916;2023-05-10T03:26:59;15.40;;;14.00;;
15712;SDS011;7957;51.608;6.916;2023-05-10T03:29:29;15.57;;;14.13;;
15712;SDS011;7957;51.608;6.916;2023-05-10T03:31:57;15.13;;;13.83;;
15712;SDS011;7957;51.608;6.916;2023-05-10T03:34:25;16.10;;;14.70;;
15712;SDS011;7957;51.608;6.916;2023-05-10T03:36:52;15.40;;;14.10;;
15712;SDS011;7957;51.608;6.916;2023-05-10T03:39:19;16.77;;;15.27;;
15712;SDS011;7957;51.608;6.916;2023-05-10T03:41:46;15.97;;;14.57;;
15712;SDS011;7957;51.608;6.916;2023-05-10T03:44:13;16.27;;;14.87;;
15712;SDS011;7957;51.608;6.916;2023-05-10T03:46:42;16.83;;;15.33;;
15712;SDS011;7957;51.608;6.916;2023-05-10T03:49:10;17.03;;;15.53;;
15712;SDS011;7957;51.608;6.916;2023-05-10T03:51:37;17.97;;;16.27;;
15712;SDS011;7957;51.608;6.916;2023-05-10T03:54:03;18.33;;;16.63;;
15712;SDS011;7957;51.608;6.916;2023-05-10T03:56:31;18.67;;;16.97;;
15712;SDS011;7957;51.608;6.916;2023-05-10T03:58:59;17.80;;;16.30;;
15712;SDS011;7957;51.608;6.916;2023-05-10T04:01:32;19.80;;;17.87;;
15712;SDS011;7957;51.608;6.916;2023-05-10T04:04:01;20.00;;;18.10;;
15712;SDS011;7957;51.608;6.916;2023-05-10T04:06:27;21.27;;;19.37;;
15712;SDS011;7957;51.608;6.916;2023-05-10T04:08:54;22.27;;;20.00;;
15712;SDS011;7957;51.608;6.916;2023-05-10T04:11:24;23.57;;;21.27;;
15712;SDS011;7957;51.608;6.916;2023-05-10T04:13:51;23.13;;;20.93;;
15712;SDS011;7957;51.608;6.916;2023-05-10T04:16:18;23.07;;;20.97;;
15712;SDS011;7957;51.608;6.916;2023-05-10T04:18:45;25.93;;;23.43;;
15712;SDS011;7957;51.608;6.916;2023-05-10T04:21:14;28.70;;;25.93;;
15712;SDS011;7957;51.608;6.916;2023-05-10T04:23:41;30.00;;;26.80;;
15712;SDS011;7957;51.608;6.916;2023-05-10T04:26:08;26.80;;;24.20;;
15712;SDS011;7957;51.608;6.916;2023-05-10T04:28:38;28.27;;;25.57;;
15712;SDS011;7957;51.608;6.916;2023-05-10T04:31:06;30.13;;;27.13;;
15712;SDS011;7957;51.608;6.916;2023-05-10T04:33:34;28.93;;;26.23;;
15712;SDS011;7957;51.608;6.916;2023-05-10T04:36:01;29.47;;;26.57;;
15712;SDS011;7957;51.608;6.916;2023-05-10T04:38:30;30.00;;;27.10;;
15712;SDS011;7957;51.608;6.916;2023-05-10T04:41:03;32.17;;;28.73;;
15712;SDS011;7957;51.608;6.916;2023-05-10T04:43:31;30.73;;;27.67;;
15712;SDS011;7957;51.608;6.916;2023-05-10T04:46:09;31.17;;;28.07;;
15712;SDS011;7957;51.608;6.916;2023-05-10T04:52:30;30.57;;;27.40;;
15712;SDS011;7957;51.608;6.916;2023-05-10T04:54:59;30.27;;;27.37;;
15712;SDS011;7957;51.608;6.916;2023-05-10T04:57:26;31.07;;;28.07;;
15712;SDS011;7957;51.608;6.916;2023-05-10T04:59:54;31.13;;;27.97;;
15712;SDS011;7957;51.608;6.916;2023-05-10T05:02:21;31.93;;;28.73;;
15712;SDS011;7957;51.608;6.916;2023-05-10T05:04:48;31.23;;;28.03;;
15712;SDS011;7957;51.608;6.916;2023-05-10T05:07:16;31.60;;;28.60;;
15712;SDS011;7957;51.608;6.916;2023-05-10T05:09:42;31.53;;;28.33;;
15712;SDS011;7957;51.608;6.916;2023-05-10T05:12:11;31.57;;;28.33;;
15712;SDS011;7957;51.608;6.916;2023-05-10T05:14:39;33.37;;;30.07;;
15712;SDS011;7957;51.608;6.916;2023-05-10T05:17:06;31.93;;;28.70;;
15712;SDS011;7957;51.608;6.916;2023-05-10T05:19:41;32.47;;;29.27;;
15712;SDS011;7957;51.608;6.916;2023-05-10T05:22:07;33.77;;;30.33;;
15712;SDS011;7957;51.608;6.916;2023-05-10T05:24:34;33.50;;;30.20;;
15712;SDS011;7957;51.608;6.916;2023-05-10T05:27:03;33.20;;;29.73;;
15712;SDS011;7957;51.608;6.916;2023-05-10T05:29:32;36.07;;;32.47;;
15712;SDS011;7957;51.608;6.916;2023-05-10T05:31:59;36.07;;;32.30;;
15712;SDS011;7957;51.608;6.916;2023-05-10T05:34:26;35.40;;;31.77;;
15712;SDS011;7957;51.608;6.916;2023-05-10T05:36:54;35.63;;;31.97;;
15712;SDS011;7957;51.608;6.916;2023-05-10T05:39:21;37.53;;;33.53;;
15712;SDS011;7957;51.608;6.916;2023-05-10T05:41:48;35.10;;;31.47;;
15712;SDS011;7957;51.608;6.916;2023-05-10T05:44:18;35.87;;;32.17;;
15712;SDS011;7957;51.608;6.916;2023-05-10T05:46:47;36.43;;;32.73;;
15712;SDS011;7957;51.608;6.916;2023-05-10T05:49:14;36.77;;;33.07;;
15712;SDS011;7957;51.608;6.916;2023-05-10T05:51:41;37.77;;;33.93;;
15712;SDS011;7957;51.608;6.916;2023-05-10T05:54:08;37.63;;;33.80;;
15712;SDS011;7957;51.608;6.916;2023-05-10T05:56:35;37.23;;;33.33;;
15712;SDS011;7957;51.608;6.916;2023-05-10T05:59:02;38.47;;;34.47;;
15712;SDS011;7957;51.608;6.916;2023-05-10T06:01:29;36.97;;;33.27;;
15712;SDS011;7957;51.608;6.916;2023-05-10T06:03:58;36.17;;;32.57;;
15712;SDS011;7957;51.608;6.916;2023-05-10T06:06:25;36.53;;;33.03;;
15712;SDS011;7957;51.608;6.916;2023-05-10T06:08:52;37.87;;;33.97;;
15712;SDS011;7957;51.608;6.916;2023-05-10T06:11:19;38.23;;;34.23;;
15712;SDS011;7957;51.608;6.916;2023-05-10T06:13:46;37.60;;;33.73;;
15712;SDS011;7957;51.608;6.916;2023-05-10T06:16:14;38.63;;;34.67;;
15712;SDS011;7957;51.608;6.916;2023-05-10T06:18:41;37.77;;;33.97;;
15712;SDS011;7957;51.608;6.916;2023-05-10T06:21:09;36.93;;;33.20;;
15712;SDS011;7957;51.608;6.916;2023-05-10T06:23:36;38.40;;;34.67;;
15712;SDS011;7957;51.608;6.916;2023-05-10T06:26:03;36.87;;;33.23;;
15712;SDS011;7957;51.608;6.916;2023-05-10T06:28:34;37.63;;;33.73;;
15712;SDS011;7957;51.608;6.916;2023-05-10T06:31:39;35.60;;;32.00;;
15712;SDS011;7957;51.608;6.916;2023-05-10T06:34:06;38.63;;;34.53;;
15712;SDS011;7957;51.608;6.916;2023-05-10T06:36:38;37.47;;;33.57;;
15712;SDS011;7957;51.608;6.916;2023-05-10T06:42:24;37.30;;;33.60;;
15712;SDS011;7957;51.608;6.916;2023-05-10T06:48:10;37.70;;;33.60;;
15712;SDS011;7957;51.608;6.916;2023-05-10T06:51:04;39.70;;;35.47;;
15712;SDS011;7957;51.608;6.916;2023-05-10T06:53:32;38.30;;;34.40;;
15712;SDS011;7957;51.608;6.916;2023-05-10T06:55:59;37.67;;;33.77;;
15712;SDS011;7957;51.608;6.916;2023-05-10T06:58:27;37.03;;;33.23;;
15712;SDS011;7957;51.608;6.916;2023-05-10T07:00:54;37.77;;;33.93;;
15712;SDS011;7957;51.608;6.916;2023-05-10T07:03:28;38.20;;;34.13;;
15712;SDS011;7957;51.608;6.916;2023-05-10T07:05:59;37.67;;;33.87;;
15712;SDS011;7957;51.608;6.916;2023-05-10T07:08:29;42.00;;;37.43;;
15712;SDS011;7957;51.608;6.916;2023-05-10T07:11:01;40.27;;;36.03;;
15712;SDS011;7957;51.608;6.916;2023-05-10T07:13:29;39.83;;;35.70;;
15712;SDS011;7957;51.608;6.916;2023-05-10T07:15:57;43.23;;;38.73;;
15712;SDS011;7957;51.608;6.916;2023-05-10T07:18:24;42.93;;;38.07;;
15712;SDS011;7957;51.608;6.916;2023-05-10T07:20:51;40.87;;;36.67;;
15712;SDS011;7957;51.608;6.916;2023-05-10T07:23:19;41.30;;;37.00;;
15712;SDS011;7957;51.608;6.916;2023-05-10T07:25:46;41.30;;;37.03;;
15712;SDS011;7957;51.608;6.916;2023-05-10T07:28:15;41.63;;;37.20;;
15712;SDS011;7957;51.608;6.916;2023-05-10T07:30:42;42.20;;;37.70;;
15712;SDS011;7957;51.608;6.916;2023-05-10T07:33:10;40.87;;;36.57;;
15712;SDS011;7957;51.608;6.916;2023-05-10T07:35:39;40.80;;;36.57;;
15712;SDS011;7957;51.608;6.916;2023-05-10T07:38:06;41.47;;;37.23;;
15712;SDS011;7957;51.608;6.916;2023-05-10T07:40:33;41.13;;;36.80;;
15712;SDS011;7957;51.608;6.916;2023-05-10T07:43:00;40.67;;;36.37;;
15712;SDS011;7957;51.608;6.916;2023-05-10T07:45:28;39.23;;;35.23;;
15712;SDS011;7957;51.608;6.916;2023-05-10T07:47:55;37.83;;;34.00;;
15712;SDS011;7957;51.608;6.916;2023-05-10T07:50:22;40.50;;;36.20;;
15712;SDS011;7957;51.608;6.916;2023-05-10T07:52:49;41.43;;;37.03;;
15712;SDS011;7957;51.608;6.916;2023-05-10T07:55:17;39.63;;;35.40;;
15712;SDS011;7957;51.608;6.916;2023-05-10T07:57:47;41.83;;;37.23;;
15712;SDS011;7957;51.608;6.916;2023-05-10T08:00:16;41.10;;;36.83;;
15712;SDS011;7957;51.608;6.916;2023-05-10T08:02:46;41.63;;;37.17;;
15712;SDS011;7957;51.608;6.916;2023-05-10T08:05:15;41.20;;;36.97;;
15712;SDS011;7957;51.608;6.916;2023-05-10T08:07:42;41.67;;;37.33;;
15712;SDS011;7957;51.608;6.916;2023-05-10T08:10:12;41.17;;;36.87;;
15712;SDS011;7957;51.608;6.916;2023-05-10T08:12:39;42.43;;;37.97;;
15712;SDS011;7957;51.608;6.916;2023-05-10T08:15:06;43.47;;;38.77;;
15712;SDS011;7957;51.608;6.916;2023-05-10T08:17:35;40.80;;;36.53;;
15712;SDS011;7957;51.608;6.916;2023-05-10T08:20:03;36.70;;;32.90;;
15712;SDS011;7957;51.608;6.916;2023-05-10T08:22:32;38.93;;;34.47;;
15712;SDS011;7957;51.608;6.916;2023-05-10T08:24:59;38.27;;;34.17;;
15712;SDS011;7957;51.608;6.916;2023-05-10T08:27:26;38.27;;;34.27;;
15712;SDS011;7957;51.608;6.916;2023-05-10T08:29:53;38.70;;;34.60;;
15712;SDS011;7957;51.608;6.916;2023-05-10T08:32:20;37.63;;;33.57;;
15712;SDS011;7957;51.608;6.916;2023-05-10T08:34:50;37.70;;;33.70;;
15712;SDS011;7957;51.608;6.916;2023-05-10T08:37:20;38.87;;;34.23;;
15712;SDS011;7957;51.608;6.916;2023-05-10T08:39:51;36.17;;;32.27;;
15712;SDS011;7957;51.608;6.916;2023-05-10T08:42:21;37.33;;;32.47;;
15712;SDS011;7957;51.608;6.916;2023-05-10T08:44:51;36.63;;;31.33;;
15712;SDS011;7957;51.608;6.916;2023-05-10T08:47:20;35.10;;;31.40;;
15712;SDS011;7957;51.608;6.916;2023-05-10T08:49:47;35.90;;;30.07;;
15712;SDS011;7957;51.608;6.916;2023-05-10T08:52:16;33.40;;;29.50;;
15712;SDS011;7957;51.608;6.916;2023-05-10T08:54:45;33.47;;;29.27;;
15712;SDS011;7957;51.608;6.916;2023-05-10T08:57:14;33.53;;;28.30;;
15712;SDS011;7957;51.608;6.916;2023-05-10T08:59:41;34.07;;;29.07;;
15712;SDS011;7957;51.608;6.916;2023-05-10T09:02:08;34.30;;;29.17;;
15712;SDS011;7957;51.608;6.916;2023-05-10T09:04:37;31.23;;;27.90;;
15712;SDS011;7957;51.608;6.916;2023-05-10T09:07:05;34.50;;;29.73;;
15712;SDS011;7957;51.608;6.916;2023-05-10T09:09:34;36.00;;;31.07;;
15712;SDS011;7957;51.608;6.916;2023-05-10T09:12:01;33.33;;;29.67;;
15712;SDS011;7957;51.608;6.916;2023-05-10T09:14:28;35.87;;;29.30;;
15712;SDS011;7957;51.608;6.916;2023-05-10T09:16:56;36.47;;;30.27;;
15712;SDS011;7957;51.608;6.916;2023-05-10T09:19:23;35.10;;;28.67;;
15712;SDS011;7957;51.608;6.916;2023-05-10T09:21:50;35.00;;;29.17;;
15712;SDS011;7957;51.608;6.916;2023-05-10T09:24:17;34.53;;;27.00;;
15712;SDS011;7957;51.608;6.916;2023-05-10T09:26:48;36.07;;;28.67;;
15712;SDS011;7957;51.608;6.916;2023-05-10T09:29:16;33.87;;;28.10;;
15712;SDS011;7957;51.608;6.916;2023-05-10T09:31:43;31.40;;;27.10;;
15712;SDS011;7957;51.608;6.916;2023-05-10T09:34:31;34.03;;;27.03;;
15712;SDS011;7957;51.608;6.916;2023-05-10T09:37:00;31.03;;;26.80;;
15712;SDS011;7957;51.608;6.916;2023-05-10T09:39:32;33.07;;;26.83;;
15712;SDS011;7957;51.608;6.916;2023-05-10T09:42:03;29.10;;;25.23;;
15712;SDS011;7957;51.608;6.916;2023-05-10T09:44:31;31.90;;;27.67;;
15712;SDS011;7957;51.608;6.916;2023-05-10T09:46:58;33.23;;;27.20;;
15712;SDS011;7957;51.608;6.916;2023-05-10T09:49:26;32.60;;;27.77;;
15712;SDS011;7957;51.608;6.916;2023-05-10T09:52:02;31.00;;;27.67;;
15712;SDS011;7957;51.608;6.916;2023-05-10T09:54:30;33.40;;;26.67;;
15712;SDS011;7957;51.608;6.916;2023-05-10T09:56:59;31.97;;;27.10;;
15712;SDS011;7957;51.608;6.916;2023-05-10T09:59:28;29.40;;;25.77;;
15712;SDS011;7957;51.608;6.916;2023-05-10T10:01:55;32.47;;;27.40;;
15712;SDS011;7957;51.608;6.916;2023-05-10T10:04:23;33.50;;;26.03;;
15712;SDS011;7957;51.608;6.916;2023-05-10T10:06:59;29.40;;;26.30;;
15712;SDS011;7957;51.608;6.916;2023-05-10T10:09:27;32.67;;;26.27;;
15712;SDS011;7957;51.608;6.916;2023-05-10T10:11:55;29.30;;;26.03;;
15712;SDS011;7957;51.608;6.916;2023-05-10T10:14:22;27.87;;;24.77;;
15712;SDS011;7957;51.608;6.916;2023-05-10T10:16:51;30.63;;;27.33;;
15712;SDS011;7957;51.608;6.916;2023-05-10T10:19:18;30.20;;;26.90;;
15712;SDS011;7957;51.608;6.916;2023-05-10T10:21:46;28.33;;;25.23;;
15712;SDS011;7957;51.608;6.916;2023-05-10T10:24:13;33.60;;;27.57;;
15712;SDS011;7957;51.608;6.916;2023-05-10T10:26:40;28.57;;;24.03;;
15712;SDS011;7957;51.608;6.916;2023-05-10T10:29:10;27.70;;;24.70;;
15712;SDS011;7957;51.608;6.916;2023-05-10T10:31:48;29.10;;;25.37;;
15712;SDS011;7957;51.608;6.916;2023-05-10T10:34:25;31.60;;;26.90;;
15712;SDS011;7957;51.608;6.916;2023-05-10T10:36:54;31.27;;;26.67;;
15712;SDS011;7957;51.608;6.916;2023-05-10T10:39:22;29.57;;;26.27;;
15712;SDS011;7957;51.608;6.916;2023-05-10T10:41:51;31.30;;;25.40;;
15712;SDS011;7957;51.608;6.916;2023-05-10T10:44:23;29.53;;;25.87;;
15712;SDS011;7957;51.608;6.916;2023-05-10T10:50:04;29.70;;;26.30;;
15712;SDS011;7957;51.608;6.916;2023-05-10T10:52:33;29.97;;;24.70;;
15712;SDS011;7957;51.608;6.916;2023-05-10T10:55:02;30.57;;;24.97;;
15712;SDS011;7957;51.608;6.916;2023-05-10T10:57:31;32.80;;;24.53;;
15712;SDS011;7957;51.608;6.916;2023-05-10T11:02:48;31.17;;;24.53;;
15712;SDS011;7957;51.608;6.916;2023-05-10T11:05:23;25.10;;;22.13;;
15712;SDS011;7957;51.608;6.916;2023-05-10T11:08:06;25.63;;;22.27;;
15712;SDS011;7957;51.608;6.916;2023-05-10T11:10:37;26.30;;;23.17;;
15712;SDS011;7957;51.608;6.916;2023-05-10T11:13:05;23.23;;;20.57;;
15712;SDS011;7957;51.608;6.916;2023-05-10T11:15:34;27.87;;;21.10;;
15712;SDS011;7957;51.608;6.916;2023-05-10T11:18:17;25.70;;;21.67;;
15712;SDS011;7957;51.608;6.916;2023-05-10T11:20:49;24.00;;;21.10;;
15712;SDS011;7957;51.608;6.916;2023-05-10T11:23:17;22.90;;;19.70;;
15712;SDS011;7957;51.608;6.916;2023-05-10T11:25:46;20.70;;;18.60;;
15712;SDS011;7957;51.608;6.916;2023-05-10T11:28:14;22.40;;;20.03;;
15712;SDS011;7957;51.608;6.916;2023-05-10T11:30:43;21.67;;;19.43;;
15712;SDS011;7957;51.608;6.916;2023-05-10T11:33:14;21.37;;;19.03;;
15712;SDS011;7957;51.608;6.916;2023-05-10T11:35:44;21.20;;;19.10;;
15712;SDS011;7957;51.608;6.916;2023-05-10T11:38:12;20.57;;;18.57;;
15712;SDS011;7957;51.608;6.916;2023-05-10T11:40:40;21.90;;;19.80;;
15712;SDS011;7957;51.608;6.916;2023-05-10T11:43:08;24.23;;;21.70;;
15712;SDS011;7957;51.608;6.916;2023-05-10T11:45:36;24.03;;;21.63;;
15712;SDS011;7957;51.608;6.916;2023-05-10T11:48:04;23.97;;;21.47;;
15712;SDS011;7957;51.608;6.916;2023-05-10T11:50:33;23.73;;;21.23;;
15712;SDS011;7957;51.608;6.916;2023-05-10T11:53:00;25.10;;;21.97;;
15712;SDS011;7957;51.608;6.916;2023-05-10T11:55:28;25.43;;;22.73;;
15712;SDS011;7957;51.608;6.916;2023-05-10T11:57:59;24.80;;;22.00;;
15712;SDS011;7957;51.608;6.916;2023-05-10T12:00:27;24.53;;;22.03;;
15712;SDS011;7957;51.608;6.916;2023-05-10T12:02:55;25.73;;;23.13;;
15712;SDS011;7957;51.608;6.916;2023-05-10T12:05:22;24.73;;;21.87;;
15712;SDS011;7957;51.608;6.916;2023-05-10T12:07:51;25.70;;;22.87;;
15712;SDS011;7957;51.608;6.916;2023-05-10T12:10:18;25.30;;;22.63;;
15712;SDS011;7957;51.608;6.916;2023-05-10T12:12:52;24.27;;;21.70;;
15712;SDS011;7957;51.608;6.916;2023-05-10T12:15:19;27.53;;;22.40;;
15712;SDS011;7957;51.608;6.916;2023-05-10T12:17:49;24.73;;;22.10;;
15712;SDS011;7957;51.608;6.916;2023-05-10T12:20:17;24.73;;;22.13;;
15712;SDS011;7957;51.608;6.916;2023-05-10T12:22:46;24.33;;;21.83;;
15712;SDS011;7957;51.608;6.916;2023-05-10T12:25:17;24.43;;;21.90;;
15712;SDS011;7957;51.608;6.916;2023-05-10T12:27:48;24.60;;;21.13;;
15712;SDS011;7957;51.608;6.916;2023-05-10T12:30:21;23.07;;;20.77;;
15712;SDS011;7957;51.608;6.916;2023-05-10T12:32:49;24.40;;;22.00;;
15712;SDS011;7957;51.608;6.916;2023-05-10T12:35:16;23.23;;;20.83;;
15712;SDS011;7957;51.608;6.916;2023-05-10T12:37:46;25.43;;;21.00;;
15712;SDS011;7957;51.608;6.916;2023-05-10T12:40:13;22.73;;;20.53;;
15712;SDS011;7957;51.608;6.916;2023-05-10T12:42:41;20.43;;;18.40;;
15712;SDS011;7957;51.608;6.916;2023-05-10T12:45:10;21.93;;;19.73;;
15712;SDS011;7957;51.608;6.916;2023-05-10T12:47:37;19.40;;;17.43;;
15712;SDS011;7957;51.608;6.916;2023-05-10T12:50:04;19.90;;;17.93;;
15712;SDS011;7957;51.608;6.916;2023-05-10T12:52:32;19.33;;;17.37;;
15712;SDS011;7957;51.608;6.916;2023-05-10T12:54:59;18.00;;;16.13;;
15712;SDS011;7957;51.608;6.916;2023-05-10T12:57:26;17.30;;;15.57;;
15712;SDS011;7957;51.608;6.916;2023-05-10T12:59:55;18.70;;;15.37;;
15712;SDS011;7957;51.608;6.916;2023-05-10T13:02:22;17.10;;;15.40;;
15712;SDS011;7957;51.608;6.916;2023-05-10T13:04:49;16.57;;;15.00;;
15712;SDS011;7957;51.608;6.916;2023-05-10T13:07:17;21.87;;;15.27;;
15712;SDS011;7957;51.608;6.916;2023-05-10T13:09:44;16.20;;;14.70;;
15712;SDS011;7957;51.608;6.916;2023-05-10T13:12:11;15.90;;;14.20;;
15712;SDS011;7957;51.608;6.916;2023-05-10T13:14:38;16.10;;;14.40;;
15712;SDS011;7957;51.608;6.916;2023-05-10T13:17:07;15.03;;;13.63;;
15712;SDS011;7957;51.608;6.916;2023-05-10T13:19:34;14.80;;;13.23;;
15712;SDS011;7957;51.608;6.916;2023-05-10T13:22:02;16.03;;;13.80;;
15712;SDS011;7957;51.608;6.916;2023-05-10T13:24:29;14.40;;;13.03;;
15712;SDS011;7957;51.608;6.916;2023-05-10T13:26:57;14.47;;;12.97;;
15712;SDS011;7957;51.608;6.916;2023-05-10T13:29:24;14.93;;;13.50;;
15712;SDS011;7957;51.608;6.916;2023-05-10T13:31:51;14.87;;;12.33;;
15712;SDS011;7957;51.608;6.916;2023-05-10T13:34:20;16.20;;;13.03;;
15712;SDS011;7957;51.608;6.916;2023-05-10T13:36:47;14.40;;;13.00;;
15712;SDS011;7957;51.608;6.916;2023-05-10T13:39:14;14.63;;;13.20;;
15712;SDS011;7957;51.608;6.916;2023-05-10T13:41:42;15.00;;;13.50;;
15712;SDS011;7957;51.608;6.916;2023-05-10T13:44:08;14.63;;;13.10;;
15712;SDS011;7957;51.608;6.916;2023-05-10T13:46:37;15.70;;;13.43;;
15712;SDS011;7957;51.608;6.916;2023-05-10T13:49:04;16.17;;;13.00;;
15712;SDS011;7957;51.608;6.916;2023-05-10T13:51:33;15.83;;;13.63;;
15712;SDS011;7957;51.608;6.916;2023-05-10T13:54:00;16.47;;;13.30;;
15712;SDS011;7957;51.608;6.916;2023-05-10T13:56:27;14.70;;;13.20;;
15712;SDS011;7957;51.608;6.916;2023-05-10T13:58:55;14.67;;;13.17;;
15712;SDS011;7957;51.608;6.916;2023-05-10T14:01:23;13.30;;;11.90;;
15712;SDS011;7957;51.608;6.916;2023-05-10T14:03:50;14.40;;;12.63;;
15712;SDS011;7957;51.608;6.916;2023-05-10T14:06:17;15.50;;;13.90;;
15712;SDS011;7957;51.608;6.916;2023-05-10T14:08:45;16.23;;;13.50;;
15712;SDS011;7957;51.608;6.916;2023-05-10T14:11:12;14.03;;;12.67;;
15712;SDS011;7957;51.608;6.916;2023-05-10T14:13:39;14.10;;;12.67;;
15712;SDS011;7957;51.608;6.916;2023-05-10T14:16:06;13.77;;;12.33;;
15712;SDS011;7957;51.608;6.916;2023-05-10T14:18:33;14.50;;;13.07;;
15712;SDS011;7957;51.608;6.916;2023-05-10T14:21:01;16.30;;;12.93;;
15712;SDS011;7957;51.608;6.916;2023-05-10T14:23:29;13.53;;;12.23;;
15712;SDS011;7957;51.608;6.916;2023-05-10T14:25:57;13.67;;;12.37;;
15712;SDS011;7957;51.608;6.916;2023-05-10T14:28:24;18.63;;;13.43;;
15712;SDS011;7957;51.608;6.916;2023-05-10T14:30:51;13.00;;;11.63;;
15712;SDS011;7957;51.608;6.916;2023-05-10T14:33:18;13.73;;;12.43;;
15712;SDS011;7957;51.608;6.916;2023-05-10T14:35:45;12.77;;;11.53;;
15712;SDS011;7957;51.608;6.916;2023-05-10T14:38:13;12.27;;;11.10;;
15712;SDS011;7957;51.608;6.916;2023-05-10T14:40:40;12.57;;;11.30;;
15712;SDS011;7957;51.608;6.916;2023-05-10T14:43:09;12.53;;;10.87;;
15712;SDS011;7957;51.608;6.916;2023-05-10T14:45:36;11.30;;;10.30;;
15712;SDS011;7957;51.608;6.916;2023-05-10T14:48:02;11.60;;;10.47;;
15712;SDS011;7957;51.608;6.916;2023-05-10T14:50:30;12.00;;;10.90;;
15712;SDS011;7957;51.608;6.916;2023-05-10T14:52:57;12.90;;;11.53;;
15712;SDS011;7957;51.608;6.916;2023-05-10T14:55:24;12.40;;;11.10;;
15712;SDS011;7957;51.608;6.916;2023-05-10T14:57:51;12.37;;;11.07;;
15712;SDS011;7957;51.608;6.916;2023-05-10T15:00:21;12.10;;;10.93;;
15712;SDS011;7957;51.608;6.916;2023-05-10T15:02:48;11.30;;;10.20;;
15712;SDS011;7957;51.608;6.916;2023-05-10T15:05:16;11.63;;;10.43;;
15712;SDS011;7957;51.608;6.916;2023-05-10T15:07:42;10.77;;;9.67;;
15712;SDS011;7957;51.608;6.916;2023-05-10T15:10:09;10.47;;;9.57;;
15712;SDS011;7957;51.608;6.916;2023-05-10T15:12:37;10.33;;;9.33;;
15712;SDS011;7957;51.608;6.916;2023-05-10T15:15:04;10.40;;;9.30;;